sensor_id;sensor_type;location;lat;lon;timestamp;pressure;altitude;pressure_sealevel;temperature;humidity
30967;BME280;17649;51.836;8.330;2022-12-17T00:19:49;101676.84;;;-6.04;100.00
30967;BME280;17649;51.836;8.330;2022-12-17T00:23:41;101681.84;;;-6.06;100.00
30967;BME280;17649;51.836;8.330;2022-12-17T06:04:44;101936.19;;;-7.04;100.00
30967;BME280;17649;51.836;8.330;2022-12-17T06:08:32;101915.09;;;-7.08;100.00
30967;BME280;17649;51.836;8.330;2022-12-17T06:12:22;101918.13;;;-6.94;100.00
30967;BME280;17649;51.836;8.330;2022-12-17T06:20:00;101918.53;;;-6.83;100.00
30967;BME280;17649;51.836;8.330;2022-12-17T10:12:01;102131.72;;;-5.67;100.00
30967;BME280;17649;51.836;8.330;2022-12-17T10:15:43;102125.53;;;-5.28;100.00
30967;BME280;17649;51.836;8.330;2022-12-17T10:35:24;102138.78;;;-5.35;100.00
30967;BME280;17649;51.836;8.330;2022-12-17T10:38:58;102149.06;;;-5.53;100.00
30967;BME280;17649;51.836;8.330;2022-12-17T10:46:44;102151.94;;;-4.93;100.00
30967;BME280;17649;51.836;8.330;2022-12-17T10:50:15;102141.22;;;-4.60;100.00
30967;BME280;17649;51.836;8.330;2022-12-17T10:54:08;102145.78;;;-4.20;100.00
30967;BME280;17649;51.836;8.330;2022-12-17T10:57:42;102104.63;;;-4.16;100.00
30967;BME280;17649;51.836;8.330;2022-12-17T11:05:16;102119.88;;;-3.83;100.00
30967;BME280;17649;51.836;8.330;2022-12-17T11:09:08;102138.94;;;-3.64;100.00
30967;BME280;17649;51.836;8.330;2022-12-17T11:16:56;102138.41;;;-4.14;100.00
30967;BME280;17649;51.836;8.330;2022-12-17T11:20:31;102137.56;;;-4.13;100.00
30967;BME280;17649;51.836;8.330;2022-12-17T11:23:58;102134.25;;;-3.82;100.00
30967;BME280;17649;51.836;8.330;2022-12-17T11:27:26;102126.84;;;-3.74;100.00
30967;BME280;17649;51.836;8.330;2022-12-17T11:38:42;102150.00;;;-4.47;100.00
30967;BME280;17649;51.836;8.330;2022-12-17T11:43:08;102134.44;;;-4.04;100.00
30967;BME280;17649;51.836;8.330;2022-12-17T11:46:31;102136.50;;;-3.61;100.00
30967;BME280;17649;51.836;8.330;2022-12-17T11:58:03;102131.25;;;-3.69;100.00
30967;BME280;17649;51.836;8.330;2022-12-17T12:13:19;102136.81;;;-3.49;100.00
30967;BME280;17649;51.836;8.330;2022-12-17T12:16:57;102131.44;;;-3.61;100.00
30967;BME280;17649;51.836;8.330;2022-12-17T12:31:04;102137.84;;;-4.61;100.00
30967;BME280;17649;51.836;8.330;2022-12-17T12:42:26;102123.31;;;-3.49;100.00
30967;BME280;17649;51.836;8.330;2022-12-17T12:46:02;102118.78;;;-3.28;100.00
30967;BME280;17649;51.836;8.330;2022-12-17T12:49:41;102115.88;;;-3.12;100.00
30967;BME280;17649;51.836;8.330;2022-12-17T12:53:12;102104.19;;;-3.05;100.00
30967;BME280;17649;51.836;8.330;2022-12-17T12:56:44;102122.88;;;-3.00;100.00
30967;BME280;17649;51.836;8.330;2022-12-17T13:03:54;102111.50;;;-3.16;100.00
30967;BME280;17649;51.836;8.330;2022-12-17T13:07:31;102102.94;;;-3.22;100.00
30967;BME280;17649;51.836;8.330;2022-12-17T13:10:36;102109.69;;;-3.21;100.00
30967;BME280;17649;51.836;8.330;2022-12-17T13:13:54;102106.38;;;-3.19;100.00
30967;BME280;17649;51.836;8.330;2022-12-17T13:17:03;102103.81;;;-3.20;100.00
30967;BME280;17649;51.836;8.330;2022-12-17T13:20:32;102097.78;;;-3.25;100.00
30967;BME280;17649;51.836;8.330;2022-12-17T13:23:36;102105.34;;;-3.27;100.00
30967;BME280;17649;51.836;8.330;2022-12-17T13:29:41;102110.88;;;-3.09;100.00
30967;BME280;17649;51.836;8.330;2022-12-17T13:40:03;102110.00;;;-3.09;100.00
30967;BME280;17649;51.836;8.330;2022-12-17T13:43:21;102101.34;;;-3.17;100.00
30967;BME280;17649;51.836;8.330;2022-12-17T13:46:34;102110.63;;;-3.18;100.00
30967;BME280;17649;51.836;8.330;2022-12-17T13:49:35;102102.38;;;-3.44;100.00
30967;BME280;17649;51.836;8.330;2022-12-17T13:52:39;102113.13;;;-3.52;100.00
30967;BME280;17649;51.836;8.330;2022-12-17T13:55:40;102114.75;;;-3.54;100.00
30967;BME280;17649;51.836;8.330;2022-12-17T13:58:53;102120.41;;;-3.63;100.00
30967;BME280;17649;51.836;8.330;2022-12-17T14:01:55;102113.50;;;-3.70;100.00
30967;BME280;17649;51.836;8.330;2022-12-17T14:05:32;102124.63;;;-3.64;100.00
30967;BME280;17649;51.836;8.330;2022-12-17T14:08:36;102129.53;;;-3.70;100.00
30967;BME280;17649;51.836;8.330;2022-12-17T14:11:37;102115.88;;;-3.75;100.00
30967;BME280;17649;51.836;8.330;2022-12-17T14:15:03;102134.47;;;-3.73;100.00
30967;BME280;17649;51.836;8.330;2022-12-17T14:18:13;102136.91;;;-3.77;100.00
30967;BME280;17649;51.836;8.330;2022-12-17T14:21:16;102136.66;;;-3.86;100.00
30967;BME280;17649;51.836;8.330;2022-12-17T14:24:25;102143.97;;;-3.96;100.00
30967;BME280;17649;51.836;8.330;2022-12-17T14:27:34;102141.25;;;-4.02;100.00
30967;BME280;17649;51.836;8.330;2022-12-17T14:30:43;102131.25;;;-4.27;100.00
30967;BME280;17649;51.836;8.330;2022-12-17T14:34:09;102139.78;;;-4.24;100.00
30967;BME280;17649;51.836;8.330;2022-12-17T14:37:22;102140.59;;;-4.25;100.00
30967;BME280;17649;51.836;8.330;2022-12-17T14:40:38;102138.13;;;-4.50;100.00
30967;BME280;17649;51.836;8.330;2022-12-17T14:43:59;102135.44;;;-4.56;100.00
30967;BME280;17649;51.836;8.330;2022-12-17T14:47:35;102142.06;;;-4.60;100.00
30967;BME280;17649;51.836;8.330;2022-12-17T14:50:40;102137.53;;;-4.70;100.00
30967;BME280;17649;51.836;8.330;2022-12-17T14:53:41;102129.78;;;-5.01;100.00
30967;BME280;17649;51.836;8.330;2022-12-17T14:56:46;102145.56;;;-5.07;100.00
30967;BME280;17649;51.836;8.330;2022-12-17T15:00:17;102149.38;;;-4.94;100.00
30967;BME280;17649;51.836;8.330;2022-12-17T15:03:27;102150.25;;;-4.92;100.00
30967;BME280;17649;51.836;8.330;2022-12-17T15:06:36;102150.09;;;-4.98;100.00
30967;BME280;17649;51.836;8.330;2022-12-17T15:09:37;102147.91;;;-5.13;100.00
30967;BME280;17649;51.836;8.330;2022-12-17T15:12:43;102155.44;;;-5.38;100.00
30967;BME280;17649;51.836;8.330;2022-12-17T15:15:47;102148.34;;;-5.50;100.00
30967;BME280;17649;51.836;8.330;2022-12-17T15:18:57;102149.34;;;-5.45;100.00
30967;BME280;17649;51.836;8.330;2022-12-17T15:22:05;102154.72;;;-5.60;100.00
30967;BME280;17649;51.836;8.330;2022-12-17T15:28:32;102154.88;;;-5.55;100.00
30967;BME280;17649;51.836;8.330;2022-12-17T15:31:36;102162.25;;;-5.84;100.00
30967;BME280;17649;51.836;8.330;2022-12-17T15:34:58;102172.22;;;-5.87;100.00
30967;BME280;17649;51.836;8.330;2022-12-17T15:38:07;102166.56;;;-6.05;100.00
30967;BME280;17649;51.836;8.330;2022-12-17T15:41:51;102165.41;;;-6.13;100.00
30967;BME280;17649;51.836;8.330;2022-12-17T15:45:30;102170.63;;;-5.85;100.00
30967;BME280;17649;51.836;8.330;2022-12-17T15:48:53;102173.53;;;-5.98;100.00
30967;BME280;17649;51.836;8.330;2022-12-17T15:56:26;102172.91;;;-6.15;100.00
30967;BME280;17649;51.836;8.330;2022-12-17T16:57:58;102199.94;;;-6.54;100.00
30967;BME280;17649;51.836;8.330;2022-12-17T17:04:54;102198.09;;;-6.79;100.00
30967;BME280;17649;51.836;8.330;2022-12-17T17:16:14;102229.34;;;-6.74;100.00
30967;BME280;17649;51.836;8.330;2022-12-17T17:20:00;102228.53;;;-6.73;100.00
30967;BME280;17649;51.836;8.330;2022-12-17T18:55:05;102242.59;;;-7.37;100.00
30967;BME280;17649;51.836;8.330;2022-12-17T18:58:27;102235.50;;;-7.46;100.00
30967;BME280;17649;51.836;8.330;2022-12-17T19:06:23;102260.44;;;-7.51;100.00
30967;BME280;17649;51.836;8.330;2022-12-17T19:16:53;102259.16;;;-7.60;100.00
30967;BME280;17649;51.836;8.330;2022-12-17T19:20:11;102258.69;;;-7.71;100.00
30967;BME280;17649;51.836;8.330;2022-12-17T19:23:32;102244.50;;;-7.88;100.00
30967;BME280;17649;51.836;8.330;2022-12-17T19:27:23;102273.22;;;-7.83;100.00
30967;BME280;17649;51.836;8.330;2022-12-17T19:38:50;102277.41;;;-8.01;100.00
30967;BME280;17649;51.836;8.330;2022-12-17T19:54:03;102253.41;;;-8.13;100.00
30967;BME280;17649;51.836;8.330;2022-12-17T20:01:59;102277.22;;;-8.22;100.00
30967;BME280;17649;51.836;8.330;2022-12-17T20:09:51;102284.28;;;-8.33;100.00
30967;BME280;17649;51.836;8.330;2022-12-17T20:13:07;102269.78;;;-8.38;100.00
30967;BME280;17649;51.836;8.330;2022-12-17T20:16:41;102280.53;;;-8.41;100.00
30967;BME280;17649;51.836;8.330;2022-12-17T20:20:02;102281.75;;;-8.33;100.00
30967;BME280;17649;51.836;8.330;2022-12-17T20:23:14;102266.59;;;-8.52;100.00
30967;BME280;17649;51.836;8.330;2022-12-17T20:26:52;102280.53;;;-8.41;100.00
30967;BME280;17649;51.836;8.330;2022-12-17T20:30:16;102285.72;;;-8.38;100.00
30967;BME280;17649;51.836;8.330;2022-12-17T20:37:30;102274.22;;;-8.51;100.00
30967;BME280;17649;51.836;8.330;2022-12-17T20:40:42;102274.06;;;-8.54;100.00
30967;BME280;17649;51.836;8.330;2022-12-17T20:47:44;102311.16;;;-8.48;100.00
30967;BME280;17649;51.836;8.330;2022-12-17T20:55:02;102316.19;;;-8.64;100.00
30967;BME280;17649;51.836;8.330;2022-12-17T21:10:07;102319.13;;;-8.73;100.00
30967;BME280;17649;51.836;8.330;2022-12-17T21:13:36;102314.25;;;-8.70;100.00
30967;BME280;17649;51.836;8.330;2022-12-17T21:17:15;102292.63;;;-8.84;100.00
30967;BME280;17649;51.836;8.330;2022-12-17T21:36:23;102312.31;;;-9.08;100.00
30967;BME280;17649;51.836;8.330;2022-12-17T21:43:46;102316.84;;;-8.85;100.00
30967;BME280;17649;51.836;8.330;2022-12-17T21:51:51;102323.59;;;-8.84;100.00
30967;BME280;17649;51.836;8.330;2022-12-17T21:55:13;102330.34;;;-8.99;100.00
30967;BME280;17649;51.836;8.330;2022-12-17T21:58:44;102336.44;;;-8.94;100.00
30967;BME280;17649;51.836;8.330;2022-12-17T22:02:16;102345.47;;;-8.81;100.00
30967;BME280;17649;51.836;8.330;2022-12-17T22:05:45;102342.03;;;-8.83;100.00
30967;BME280;17649;51.836;8.330;2022-12-17T22:12:28;102358.50;;;-8.72;100.00
30967;BME280;17649;51.836;8.330;2022-12-17T22:23:42;102327.69;;;-9.02;100.00
30967;BME280;17649;51.836;8.330;2022-12-17T22:27:16;102349.78;;;-8.95;100.00
30967;BME280;17649;51.836;8.330;2022-12-17T22:30:33;102339.13;;;-8.91;100.00
30967;BME280;17649;51.836;8.330;2022-12-17T22:34:05;102346.47;;;-8.94;100.00
30967;BME280;17649;51.836;8.330;2022-12-17T22:37:57;102355.56;;;-8.96;100.00
30967;BME280;17649;51.836;8.330;2022-12-17T22:41:39;102322.88;;;-9.14;100.00
30967;BME280;17649;51.836;8.330;2022-12-17T22:45:04;102321.72;;;-9.20;100.00
30967;BME280;17649;51.836;8.330;2022-12-17T22:52:51;102349.63;;;-9.14;100.00
30967;BME280;17649;51.836;8.330;2022-12-17T22:56:23;102351.91;;;-9.19;100.00
30967;BME280;17649;51.836;8.330;2022-12-17T23:03:26;102351.75;;;-9.22;100.00
30967;BME280;17649;51.836;8.330;2022-12-17T23:06:53;102328.13;;;-9.25;100.00
30967;BME280;17649;51.836;8.330;2022-12-17T23:10:10;102346.09;;;-9.02;100.00
30967;BME280;17649;51.836;8.330;2022-12-17T23:13:29;102358.56;;;-9.03;100.00
30967;BME280;17649;51.836;8.330;2022-12-17T23:16:37;102353.84;;;-9.13;100.00
30967;BME280;17649;51.836;8.330;2022-12-17T23:19:54;102345.16;;;-9.20;100.00
30967;BME280;17649;51.836;8.330;2022-12-17T23:23:42;102353.53;;;-9.19;100.00
30967;BME280;17649;51.836;8.330;2022-12-17T23:26:52;102352.59;;;-9.21;100.00
30967;BME280;17649;51.836;8.330;2022-12-17T23:30:35;102349.03;;;-9.25;100.00
30967;BME280;17649;51.836;8.330;2022-12-17T23:34:15;102347.66;;;-9.20;100.00
30967;BME280;17649;51.836;8.330;2022-12-17T23:45:08;102346.63;;;-9.23;100.00
30967;BME280;17649;51.836;8.330;2022-12-17T23:48:26;102359.78;;;-9.27;100.00
30967;BME280;17649;51.836;8.330;2022-12-17T23:51:34;102361.34;;;-9.29;100.00
30967;BME280;17649;51.836;8.330;2022-12-17T23:54:49;102361.19;;;-9.33;100.00
30967;BME280;17649;51.836;8.330;2022-12-17T23:57:59;102369.50;;;-9.34;100.00
